Indian Creek Village, Florida
Current Conditions -  °F | °C
As of 10:53 PM on Wednesday 26 Nov 2014 (Local Time) from KHWO Reporting Station
Clear Clear  
Wind Chill: 57°   Ceiling: Unl
Heat Index: 57°   Visibility: 10mi
Dew Point: 48°   Wind: 12mph
Humidity: 72%   Direction: 340°NNW
Pressure: 30.2"   Gusts: NA
Location:  25.882°N, 80.1292°W
Report Text: KHWO 270353Z AUTO 34010KT 10SM CLR 14/09 A3020 RMK AO2 SLP228 T01390089
Loading
Personal Weather Stations






























Interactive Weather Map New forecast layout! Learn more

10-Day Weather Forecast

Advertisements
Track Severe Weather on mobile